sensor_id;sensor_type;location;lat;lon;timestamp;P1;durP1;ratioP1;P2;durP2;ratioP2
59014;SDS011;44799;53.382;14.666;2023-09-07T11:45:59;3.33;;;2.60;;
59014;SDS011;44799;53.382;14.666;2023-09-07T11:48:26;3.25;;;2.35;;
59014;SDS011;44799;53.382;14.666;2023-09-07T11:50:53;2.83;;;2.17;;
59014;SDS011;44799;53.382;14.666;2023-09-07T11:53:19;2.58;;;2.33;;
59014;SDS011;44799;53.382;14.666;2023-09-07T11:55:45;2.70;;;2.17;;
59014;SDS011;44799;53.382;14.666;2023-09-07T11:58:10;2.00;;;1.80;;
59014;SDS011;44799;53.382;14.666;2023-09-07T12:00:36;2.55;;;2.30;;
59014;SDS011;44799;53.382;14.666;2023-09-07T12:03:02;3.67;;;2.17;;
59014;SDS011;44799;53.382;14.666;2023-09-07T12:05:29;5.03;;;2.17;;
59014;SDS011;44799;53.382;14.666;2023-09-07T12:07:54;2.65;;;2.13;;
59014;SDS011;44799;53.382;14.666;2023-09-07T12:10:20;4.15;;;2.72;;
59014;SDS011;44799;53.382;14.666;2023-09-07T12:12:46;3.88;;;2.58;;
59014;SDS011;44799;53.382;14.666;2023-09-07T12:15:12;3.03;;;2.33;;
59014;SDS011;44799;53.382;14.666;2023-09-07T12:17:38;3.17;;;2.63;;
59014;SDS011;44799;53.382;14.666;2023-09-07T12:20:04;4.60;;;2.63;;
59014;SDS011;44799;53.382;14.666;2023-09-07T12:22:34;4.57;;;2.88;;
59014;SDS011;44799;53.382;14.666;2023-09-07T12:25:02;3.15;;;2.15;;
59014;SDS011;44799;53.382;14.666;2023-09-07T12:27:28;2.17;;;1.70;;
59014;SDS011;44799;53.382;14.666;2023-09-07T12:29:54;3.33;;;1.92;;
59014;SDS011;44799;53.382;14.666;2023-09-07T12:32:20;5.00;;;2.50;;
59014;SDS011;44799;53.382;14.666;2023-09-07T12:34:46;3.92;;;2.35;;
59014;SDS011;44799;53.382;14.666;2023-09-07T12:37:12;2.15;;;1.83;;
59014;SDS011;44799;53.382;14.666;2023-09-07T12:39:38;2.45;;;2.20;;
59014;SDS011;44799;53.382;14.666;2023-09-07T12:42:04;2.92;;;2.05;;
59014;SDS011;44799;53.382;14.666;2023-09-07T12:44:30;3.20;;;2.15;;
59014;SDS011;44799;53.382;14.666;2023-09-07T12:46:55;3.80;;;2.08;;
59014;SDS011;44799;53.382;14.666;2023-09-07T12:49:22;6.32;;;2.03;;
59014;SDS011;44799;53.382;14.666;2023-09-07T12:51:47;2.10;;;1.90;;
59014;SDS011;44799;53.382;14.666;2023-09-07T12:54:13;2.42;;;2.10;;
59014;SDS011;44799;53.382;14.666;2023-09-07T12:56:39;3.60;;;2.40;;
59014;SDS011;44799;53.382;14.666;2023-09-07T12:59:06;2.40;;;1.90;;
59014;SDS011;44799;53.382;14.666;2023-09-07T13:01:35;3.33;;;2.35;;
59014;SDS011;44799;53.382;14.666;2023-09-07T13:04:01;2.78;;;2.30;;
59014;SDS011;44799;53.382;14.666;2023-09-07T13:06:27;3.05;;;2.38;;
59014;SDS011;44799;53.382;14.666;2023-09-07T13:08:53;2.88;;;2.28;;
59014;SDS011;44799;53.382;14.666;2023-09-07T13:11:19;2.38;;;2.10;;
59014;SDS011;44799;53.382;14.666;2023-09-07T13:13:45;3.30;;;2.30;;
59014;SDS011;44799;53.382;14.666;2023-09-07T13:16:11;4.45;;;1.90;;
59014;SDS011;44799;53.382;14.666;2023-09-07T13:18:38;4.32;;;2.58;;
59014;SDS011;44799;53.382;14.666;2023-09-07T13:21:04;2.97;;;2.10;;
59014;SDS011;44799;53.382;14.666;2023-09-07T13:23:30;2.50;;;2.15;;
59014;SDS011;44799;53.382;14.666;2023-09-07T13:25:56;2.97;;;2.40;;
59014;SDS011;44799;53.382;14.666;2023-09-07T13:28:22;2.83;;;2.47;;
59014;SDS011;44799;53.382;14.666;2023-09-07T13:30:49;3.95;;;2.40;;
59014;SDS011;44799;53.382;14.666;2023-09-07T13:33:15;3.03;;;2.35;;
59014;SDS011;44799;53.382;14.666;2023-09-07T13:35:41;2.63;;;2.30;;
59014;SDS011;44799;53.382;14.666;2023-09-07T13:38:07;3.58;;;2.40;;
59014;SDS011;44799;53.382;14.666;2023-09-07T13:40:33;2.55;;;2.05;;
59014;SDS011;44799;53.382;14.666;2023-09-07T13:42:59;4.05;;;2.40;;
59014;SDS011;44799;53.382;14.666;2023-09-07T13:45:25;4.43;;;2.58;;
59014;SDS011;44799;53.382;14.666;2023-09-07T13:47:51;3.03;;;2.60;;
59014;SDS011;44799;53.382;14.666;2023-09-07T13:50:17;3.70;;;2.20;;
59014;SDS011;44799;53.382;14.666;2023-09-07T13:52:43;2.92;;;2.50;;
59014;SDS011;44799;53.382;14.666;2023-09-07T13:55:09;4.55;;;2.58;;
59014;SDS011;44799;53.382;14.666;2023-09-07T13:57:35;3.15;;;2.00;;
59014;SDS011;44799;53.382;14.666;2023-09-07T14:00:01;3.05;;;2.50;;
59014;SDS011;44799;53.382;14.666;2023-09-07T14:02:27;2.63;;;2.22;;
59014;SDS011;44799;53.382;14.666;2023-09-07T14:04:53;4.78;;;2.53;;
59014;SDS011;44799;53.382;14.666;2023-09-07T14:07:19;3.97;;;2.50;;
59014;SDS011;44799;53.382;14.666;2023-09-07T14:09:46;3.00;;;2.70;;
59014;SDS011;44799;53.382;14.666;2023-09-07T14:12:12;4.65;;;2.92;;
59014;SDS011;44799;53.382;14.666;2023-09-07T14:14:38;2.60;;;2.40;;
59014;SDS011;44799;53.382;14.666;2023-09-07T14:17:03;4.60;;;2.92;;
59014;SDS011;44799;53.382;14.666;2023-09-07T14:19:30;4.43;;;2.50;;
59014;SDS011;44799;53.382;14.666;2023-09-07T14:21:56;2.97;;;2.33;;
59014;SDS011;44799;53.382;14.666;2023-09-07T14:24:23;3.30;;;2.70;;
59014;SDS011;44799;53.382;14.666;2023-09-07T14:26:49;3.65;;;2.70;;
59014;SDS011;44799;53.382;14.666;2023-09-07T14:29:16;4.32;;;2.75;;
59014;SDS011;44799;53.382;14.666;2023-09-07T14:31:41;4.72;;;2.58;;
59014;SDS011;44799;53.382;14.666;2023-09-07T14:34:08;3.50;;;2.35;;
59014;SDS011;44799;53.382;14.666;2023-09-07T14:36:35;4.70;;;2.60;;
59014;SDS011;44799;53.382;14.666;2023-09-07T14:39:01;3.72;;;2.72;;
59014;SDS011;44799;53.382;14.666;2023-09-07T14:41:28;4.07;;;2.70;;
59014;SDS011;44799;53.382;14.666;2023-09-07T14:43:55;4.13;;;2.35;;
59014;SDS011;44799;53.382;14.666;2023-09-07T14:46:21;3.30;;;2.47;;
59014;SDS011;44799;53.382;14.666;2023-09-07T14:48:50;2.95;;;2.20;;
59014;SDS011;44799;53.382;14.666;2023-09-07T14:51:16;4.28;;;2.88;;
59014;SDS011;44799;53.382;14.666;2023-09-07T14:53:43;4.03;;;3.08;;
59014;SDS011;44799;53.382;14.666;2023-09-07T14:56:09;3.20;;;2.33;;
59014;SDS011;44799;53.382;14.666;2023-09-07T14:58:35;3.03;;;2.72;;
59014;SDS011;44799;53.382;14.666;2023-09-07T15:01:01;4.70;;;2.38;;
59014;SDS011;44799;53.382;14.666;2023-09-07T15:03:28;3.53;;;2.60;;
59014;SDS011;44799;53.382;14.666;2023-09-07T15:05:54;7.97;;;3.70;;
59014;SDS011;44799;53.382;14.666;2023-09-07T15:08:20;3.38;;;2.53;;
59014;SDS011;44799;53.382;14.666;2023-09-07T15:10:46;5.68;;;3.40;;
59014;SDS011;44799;53.382;14.666;2023-09-07T15:13:12;5.60;;;3.17;;
59014;SDS011;44799;53.382;14.666;2023-09-07T15:15:38;4.65;;;2.92;;
59014;SDS011;44799;53.382;14.666;2023-09-07T15:18:05;4.05;;;3.30;;
59014;SDS011;44799;53.382;14.666;2023-09-07T15:20:32;3.78;;;2.47;;
59014;SDS011;44799;53.382;14.666;2023-09-07T15:22:58;3.38;;;2.97;;
59014;SDS011;44799;53.382;14.666;2023-09-07T15:25:24;3.92;;;2.53;;
59014;SDS011;44799;53.382;14.666;2023-09-07T15:27:53;3.10;;;2.35;;
59014;SDS011;44799;53.382;14.666;2023-09-07T15:30:19;2.65;;;2.30;;
59014;SDS011;44799;53.382;14.666;2023-09-07T15:32:45;2.53;;;2.33;;
59014;SDS011;44799;53.382;14.666;2023-09-07T15:35:11;3.78;;;2.63;;
59014;SDS011;44799;53.382;14.666;2023-09-07T15:37:37;2.60;;;2.40;;
59014;SDS011;44799;53.382;14.666;2023-09-07T15:40:06;3.50;;;2.30;;
59014;SDS011;44799;53.382;14.666;2023-09-07T15:42:32;4.25;;;2.40;;
59014;SDS011;44799;53.382;14.666;2023-09-07T15:44:57;4.15;;;2.47;;
59014;SDS011;44799;53.382;14.666;2023-09-07T15:47:24;2.47;;;2.28;;
59014;SDS011;44799;53.382;14.666;2023-09-07T15:49:51;2.78;;;2.30;;
59014;SDS011;44799;53.382;14.666;2023-09-07T15:52:17;3.50;;;2.60;;
59014;SDS011;44799;53.382;14.666;2023-09-07T15:54:44;2.85;;;2.03;;
59014;SDS011;44799;53.382;14.666;2023-09-07T15:57:10;2.50;;;2.30;;
59014;SDS011;44799;53.382;14.666;2023-09-07T15:59:36;3.90;;;2.45;;
59014;SDS011;44799;53.382;14.666;2023-09-07T16:02:01;3.55;;;2.20;;
59014;SDS011;44799;53.382;14.666;2023-09-07T16:04:28;2.33;;;2.13;;
59014;SDS011;44799;53.382;14.666;2023-09-07T16:06:53;2.53;;;2.17;;
59014;SDS011;44799;53.382;14.666;2023-09-07T16:09:19;3.67;;;2.33;;
59014;SDS011;44799;53.382;14.666;2023-09-07T16:11:45;3.13;;;2.10;;
59014;SDS011;44799;53.382;14.666;2023-09-07T16:14:11;11.32;;;2.80;;
59014;SDS011;44799;53.382;14.666;2023-09-07T16:16:37;2.67;;;2.15;;
59014;SDS011;44799;53.382;14.666;2023-09-07T16:19:03;2.83;;;2.50;;
59014;SDS011;44799;53.382;14.666;2023-09-07T16:21:30;3.13;;;2.80;;
59014;SDS011;44799;53.382;14.666;2023-09-07T16:23:56;2.28;;;2.08;;
59014;SDS011;44799;53.382;14.666;2023-09-07T16:26:22;3.03;;;2.55;;
59014;SDS011;44799;53.382;14.666;2023-09-07T16:28:48;4.60;;;2.20;;
59014;SDS011;44799;53.382;14.666;2023-09-07T16:31:14;4.40;;;2.53;;
59014;SDS011;44799;53.382;14.666;2023-09-07T16:33:40;6.68;;;2.38;;
59014;SDS011;44799;53.382;14.666;2023-09-07T16:36:06;2.67;;;2.30;;
59014;SDS011;44799;53.382;14.666;2023-09-07T16:38:33;3.00;;;2.45;;
59014;SDS011;44799;53.382;14.666;2023-09-07T16:41:05;2.40;;;2.20;;
59014;SDS011;44799;53.382;14.666;2023-09-07T16:43:34;3.15;;;2.33;;
59014;SDS011;44799;53.382;14.666;2023-09-07T16:46:00;5.70;;;2.70;;
59014;SDS011;44799;53.382;14.666;2023-09-07T16:48:26;4.05;;;2.78;;
59014;SDS011;44799;53.382;14.666;2023-09-07T16:50:53;4.13;;;2.40;;
59014;SDS011;44799;53.382;14.666;2023-09-07T16:53:19;3.33;;;3.03;;
59014;SDS011;44799;53.382;14.666;2023-09-07T16:55:45;3.45;;;2.60;;
59014;SDS011;44799;53.382;14.666;2023-09-07T16:58:11;4.18;;;2.38;;
59014;SDS011;44799;53.382;14.666;2023-09-07T17:00:37;3.20;;;2.40;;
59014;SDS011;44799;53.382;14.666;2023-09-07T17:03:04;3.33;;;2.58;;
59014;SDS011;44799;53.382;14.666;2023-09-07T17:05:31;4.68;;;2.75;;
59014;SDS011;44799;53.382;14.666;2023-09-07T17:07:59;4.45;;;2.75;;
59014;SDS011;44799;53.382;14.666;2023-09-07T17:10:25;3.88;;;2.95;;
59014;SDS011;44799;53.382;14.666;2023-09-07T17:12:51;5.20;;;3.30;;
59014;SDS011;44799;53.382;14.666;2023-09-07T17:15:17;3.42;;;2.53;;
59014;SDS011;44799;53.382;14.666;2023-09-07T17:17:51;4.13;;;2.63;;
59014;SDS011;44799;53.382;14.666;2023-09-07T17:20:18;3.72;;;2.88;;
59014;SDS011;44799;53.382;14.666;2023-09-07T17:22:44;3.72;;;2.72;;
59014;SDS011;44799;53.382;14.666;2023-09-07T17:25:14;5.78;;;3.42;;
59014;SDS011;44799;53.382;14.666;2023-09-07T17:27:42;6.18;;;3.45;;
59014;SDS011;44799;53.382;14.666;2023-09-07T17:30:08;3.15;;;2.55;;
59014;SDS011;44799;53.382;14.666;2023-09-07T17:32:36;6.55;;;3.53;;
59014;SDS011;44799;53.382;14.666;2023-09-07T17:35:02;6.70;;;2.85;;
59014;SDS011;44799;53.382;14.666;2023-09-07T17:37:29;6.55;;;3.33;;
59014;SDS011;44799;53.382;14.666;2023-09-07T17:39:55;4.03;;;3.03;;
59014;SDS011;44799;53.382;14.666;2023-09-07T17:42:21;3.90;;;3.50;;
59014;SDS011;44799;53.382;14.666;2023-09-07T17:44:48;4.00;;;3.13;;
59014;SDS011;44799;53.382;14.666;2023-09-07T17:47:15;4.72;;;3.28;;
59014;SDS011;44799;53.382;14.666;2023-09-07T17:49:40;7.82;;;3.58;;
59014;SDS011;44799;53.382;14.666;2023-09-07T17:52:07;6.95;;;3.75;;
59014;SDS011;44799;53.382;14.666;2023-09-07T17:54:33;5.03;;;3.38;;
59014;SDS011;44799;53.382;14.666;2023-09-07T17:56:59;5.05;;;3.45;;
59014;SDS011;44799;53.382;14.666;2023-09-07T17:59:25;5.28;;;3.22;;
59014;SDS011;44799;53.382;14.666;2023-09-07T18:01:53;6.78;;;4.53;;
59014;SDS011;44799;53.382;14.666;2023-09-07T18:04:22;9.15;;;7.07;;
59014;SDS011;44799;53.382;14.666;2023-09-07T18:06:49;10.63;;;7.63;;
59014;SDS011;44799;53.382;14.666;2023-09-07T18:09:15;12.02;;;7.45;;
59014;SDS011;44799;53.382;14.666;2023-09-07T18:11:41;9.95;;;7.97;;
59014;SDS011;44799;53.382;14.666;2023-09-07T18:14:13;11.73;;;7.95;;
59014;SDS011;44799;53.382;14.666;2023-09-07T18:16:40;10.98;;;8.18;;
59014;SDS011;44799;53.382;14.666;2023-09-07T18:19:07;10.95;;;7.90;;
59014;SDS011;44799;53.382;14.666;2023-09-07T18:21:35;8.75;;;5.75;;
59014;SDS011;44799;53.382;14.666;2023-09-07T18:24:02;9.85;;;5.95;;
59014;SDS011;44799;53.382;14.666;2023-09-07T18:26:28;10.15;;;5.53;;
59014;SDS011;44799;53.382;14.666;2023-09-07T18:28:55;10.15;;;5.47;;
59014;SDS011;44799;53.382;14.666;2023-09-07T18:31:22;9.05;;;5.13;;
59014;SDS011;44799;53.382;14.666;2023-09-07T18:33:48;9.70;;;4.50;;
59014;SDS011;44799;53.382;14.666;2023-09-07T18:36:14;6.43;;;4.28;;
59014;SDS011;44799;53.382;14.666;2023-09-07T18:38:41;4.95;;;3.88;;
59014;SDS011;44799;53.382;14.666;2023-09-07T18:41:08;6.18;;;4.45;;
59014;SDS011;44799;53.382;14.666;2023-09-07T18:43:34;8.05;;;4.40;;
59014;SDS011;44799;53.382;14.666;2023-09-07T18:46:04;6.63;;;4.07;;
59014;SDS011;44799;53.382;14.666;2023-09-07T18:48:33;9.32;;;5.15;;
59014;SDS011;44799;53.382;14.666;2023-09-07T18:51:03;5.47;;;4.10;;
59014;SDS011;44799;53.382;14.666;2023-09-07T18:53:30;7.30;;;4.65;;
59014;SDS011;44799;53.382;14.666;2023-09-07T18:55:56;9.93;;;4.72;;
59014;SDS011;44799;53.382;14.666;2023-09-07T18:58:23;10.02;;;5.47;;
59014;SDS011;44799;53.382;14.666;2023-09-07T19:00:48;9.50;;;5.35;;
59014;SDS011;44799;53.382;14.666;2023-09-07T19:03:21;7.03;;;5.03;;
59014;SDS011;44799;53.382;14.666;2023-09-07T19:05:47;8.50;;;4.22;;
59014;SDS011;44799;53.382;14.666;2023-09-07T19:08:13;4.90;;;4.25;;
59014;SDS011;44799;53.382;14.666;2023-09-07T19:10:39;6.78;;;4.32;;
59014;SDS011;44799;53.382;14.666;2023-09-07T19:13:06;7.50;;;4.30;;
59014;SDS011;44799;53.382;14.666;2023-09-07T19:15:31;7.80;;;4.57;;
59014;SDS011;44799;53.382;14.666;2023-09-07T19:17:58;7.53;;;4.78;;
59014;SDS011;44799;53.382;14.666;2023-09-07T19:20:23;8.88;;;4.80;;
59014;SDS011;44799;53.382;14.666;2023-09-07T19:22:51;7.00;;;4.50;;
59014;SDS011;44799;53.382;14.666;2023-09-07T19:25:17;5.70;;;3.45;;
59014;SDS011;44799;53.382;14.666;2023-09-07T19:27:42;5.78;;;3.95;;
59014;SDS011;44799;53.382;14.666;2023-09-07T19:30:09;7.05;;;4.07;;
59014;SDS011;44799;53.382;14.666;2023-09-07T19:32:35;5.50;;;4.10;;
59014;SDS011;44799;53.382;14.666;2023-09-07T19:35:01;7.82;;;4.47;;
59014;SDS011;44799;53.382;14.666;2023-09-07T19:37:32;6.82;;;4.00;;
59014;SDS011;44799;53.382;14.666;2023-09-07T19:39:58;6.45;;;4.60;;
59014;SDS011;44799;53.382;14.666;2023-09-07T19:42:24;11.68;;;3.80;;
59014;SDS011;44799;53.382;14.666;2023-09-07T19:44:51;7.93;;;4.00;;
59014;SDS011;44799;53.382;14.666;2023-09-07T19:47:16;7.75;;;3.78;;
59014;SDS011;44799;53.382;14.666;2023-09-07T19:49:43;5.65;;;4.55;;
59014;SDS011;44799;53.382;14.666;2023-09-07T19:52:09;6.35;;;3.80;;
59014;SDS011;44799;53.382;14.666;2023-09-07T19:54:36;7.00;;;4.38;;
59014;SDS011;44799;53.382;14.666;2023-09-07T19:57:02;6.35;;;4.03;;
59014;SDS011;44799;53.382;14.666;2023-09-07T19:59:27;4.15;;;3.53;;
59014;SDS011;44799;53.382;14.666;2023-09-07T20:01:57;5.47;;;3.42;;
59014;SDS011;44799;53.382;14.666;2023-09-07T20:04:26;4.45;;;3.80;;
59014;SDS011;44799;53.382;14.666;2023-09-07T20:06:52;6.32;;;3.70;;
59014;SDS011;44799;53.382;14.666;2023-09-07T20:09:19;5.15;;;3.60;;
59014;SDS011;44799;53.382;14.666;2023-09-07T20:11:49;7.20;;;3.80;;
59014;SDS011;44799;53.382;14.666;2023-09-07T20:14:17;5.05;;;3.38;;
59014;SDS011;44799;53.382;14.666;2023-09-07T20:16:43;4.70;;;4.10;;
59014;SDS011;44799;53.382;14.666;2023-09-07T20:19:09;5.70;;;3.55;;
59014;SDS011;44799;53.382;14.666;2023-09-07T20:21:35;6.30;;;4.07;;
59014;SDS011;44799;53.382;14.666;2023-09-07T20:24:01;5.25;;;4.10;;
59014;SDS011;44799;53.382;14.666;2023-09-07T20:26:27;7.50;;;3.63;;
59014;SDS011;44799;53.382;14.666;2023-09-07T20:28:56;5.95;;;3.65;;
59014;SDS011;44799;53.382;14.666;2023-09-07T20:31:22;7.15;;;3.90;;
59014;SDS011;44799;53.382;14.666;2023-09-07T20:33:48;3.85;;;3.17;;
59014;SDS011;44799;53.382;14.666;2023-09-07T20:36:14;6.40;;;3.90;;
59014;SDS011;44799;53.382;14.666;2023-09-07T20:38:42;4.93;;;3.67;;
59014;SDS011;44799;53.382;14.666;2023-09-07T20:41:09;6.40;;;4.45;;
59014;SDS011;44799;53.382;14.666;2023-09-07T20:43:35;6.72;;;4.10;;
59014;SDS011;44799;53.382;14.666;2023-09-07T20:46:01;5.70;;;4.25;;
59014;SDS011;44799;53.382;14.666;2023-09-07T20:48:30;7.43;;;4.53;;
59014;SDS011;44799;53.382;14.666;2023-09-07T20:50:56;7.10;;;3.85;;
59014;SDS011;44799;53.382;14.666;2023-09-07T20:53:22;5.00;;;3.88;;
59014;SDS011;44799;53.382;14.666;2023-09-07T20:55:48;4.95;;;4.05;;
59014;SDS011;44799;53.382;14.666;2023-09-07T20:58:13;5.45;;;4.18;;
59014;SDS011;44799;53.382;14.666;2023-09-07T21:00:39;4.78;;;3.95;;
59014;SDS011;44799;53.382;14.666;2023-09-07T21:03:05;3.85;;;3.35;;
59014;SDS011;44799;53.382;14.666;2023-09-07T21:05:31;7.65;;;4.10;;
59014;SDS011;44799;53.382;14.666;2023-09-07T21:07:57;5.60;;;4.13;;
59014;SDS011;44799;53.382;14.666;2023-09-07T21:10:23;6.05;;;4.00;;
59014;SDS011;44799;53.382;14.666;2023-09-07T21:12:49;5.55;;;4.18;;
59014;SDS011;44799;53.382;14.666;2023-09-07T21:15:15;4.90;;;4.13;;
59014;SDS011;44799;53.382;14.666;2023-09-07T21:17:42;6.53;;;3.75;;
59014;SDS011;44799;53.382;14.666;2023-09-07T21:20:09;5.05;;;4.13;;
59014;SDS011;44799;53.382;14.666;2023-09-07T21:22:38;6.30;;;4.05;;
59014;SDS011;44799;53.382;14.666;2023-09-07T21:25:05;6.90;;;4.30;;
59014;SDS011;44799;53.382;14.666;2023-09-07T21:27:31;5.28;;;4.38;;
59014;SDS011;44799;53.382;14.666;2023-09-07T21:29:57;5.75;;;4.15;;
59014;SDS011;44799;53.382;14.666;2023-09-07T21:32:23;6.15;;;4.90;;
59014;SDS011;44799;53.382;14.666;2023-09-07T21:34:49;11.10;;;4.63;;
59014;SDS011;44799;53.382;14.666;2023-09-07T21:37:15;4.47;;;4.00;;
59014;SDS011;44799;53.382;14.666;2023-09-07T21:39:44;4.53;;;3.65;;
59014;SDS011;44799;53.382;14.666;2023-09-07T21:42:14;8.02;;;4.95;;
59014;SDS011;44799;53.382;14.666;2023-09-07T21:44:40;6.30;;;4.40;;
59014;SDS011;44799;53.382;14.666;2023-09-07T21:47:06;7.40;;;4.78;;
59014;SDS011;44799;53.382;14.666;2023-09-07T21:49:34;5.18;;;4.32;;
59014;SDS011;44799;53.382;14.666;2023-09-07T21:51:59;6.10;;;4.22;;
59014;SDS011;44799;53.382;14.666;2023-09-07T21:54:26;6.38;;;4.63;;
59014;SDS011;44799;53.382;14.666;2023-09-07T21:56:53;5.15;;;4.40;;
59014;SDS011;44799;53.382;14.666;2023-09-07T21:59:19;5.93;;;4.30;;
59014;SDS011;44799;53.382;14.666;2023-09-07T22:01:45;5.03;;;4.30;;
59014;SDS011;44799;53.382;14.666;2023-09-07T22:04:11;7.50;;;4.75;;
59014;SDS011;44799;53.382;14.666;2023-09-07T22:06:37;5.82;;;4.43;;
59014;SDS011;44799;53.382;14.666;2023-09-07T22:09:03;8.57;;;4.93;;
59014;SDS011;44799;53.382;14.666;2023-09-07T22:11:30;6.72;;;3.90;;
59014;SDS011;44799;53.382;14.666;2023-09-07T22:13:56;6.68;;;4.80;;
59014;SDS011;44799;53.382;14.666;2023-09-07T22:16:22;6.00;;;4.80;;
59014;SDS011;44799;53.382;14.666;2023-09-07T22:18:47;7.10;;;4.35;;
59014;SDS011;44799;53.382;14.666;2023-09-07T22:21:13;6.50;;;4.50;;
59014;SDS011;44799;53.382;14.666;2023-09-07T22:23:39;6.28;;;5.05;;
59014;SDS011;44799;53.382;14.666;2023-09-07T22:26:05;6.25;;;4.40;;
59014;SDS011;44799;53.382;14.666;2023-09-07T22:28:31;6.82;;;4.60;;
59014;SDS011;44799;53.382;14.666;2023-09-07T22:30:57;5.72;;;4.90;;
59014;SDS011;44799;53.382;14.666;2023-09-07T22:33:24;6.38;;;4.53;;
59014;SDS011;44799;53.382;14.666;2023-09-07T22:35:50;6.18;;;4.97;;
59014;SDS011;44799;53.382;14.666;2023-09-07T22:38:17;6.80;;;5.28;;
59014;SDS011;44799;53.382;14.666;2023-09-07T22:40:43;7.57;;;4.55;;
59014;SDS011;44799;53.382;14.666;2023-09-07T22:43:09;5.35;;;4.55;;
59014;SDS011;44799;53.382;14.666;2023-09-07T22:45:35;6.40;;;4.82;;
59014;SDS011;44799;53.382;14.666;2023-09-07T22:48:02;6.63;;;4.75;;
59014;SDS011;44799;53.382;14.666;2023-09-07T22:50:28;5.40;;;4.38;;
59014;SDS011;44799;53.382;14.666;2023-09-07T22:52:54;7.05;;;4.80;;
59014;SDS011;44799;53.382;14.666;2023-09-07T22:55:39;5.22;;;4.15;;
59014;SDS011;44799;53.382;14.666;2023-09-07T22:58:07;6.75;;;4.82;;
59014;SDS011;44799;53.382;14.666;2023-09-07T23:00:34;7.53;;;4.70;;
59014;SDS011;44799;53.382;14.666;2023-09-07T23:03:00;7.03;;;5.00;;
59014;SDS011;44799;53.382;14.666;2023-09-07T23:05:26;6.03;;;4.60;;
59014;SDS011;44799;53.382;14.666;2023-09-07T23:07:52;8.10;;;5.13;;
59014;SDS011;44799;53.382;14.666;2023-09-07T23:10:18;6.78;;;4.35;;
59014;SDS011;44799;53.382;14.666;2023-09-07T23:12:47;5.68;;;4.65;;
59014;SDS011;44799;53.382;14.666;2023-09-07T23:15:14;6.22;;;4.50;;
59014;SDS011;44799;53.382;14.666;2023-09-07T23:17:40;8.73;;;5.20;;
59014;SDS011;44799;53.382;14.666;2023-09-07T23:20:06;6.05;;;4.82;;
59014;SDS011;44799;53.382;14.666;2023-09-07T23:22:35;7.40;;;4.88;;
59014;SDS011;44799;53.382;14.666;2023-09-07T23:25:01;6.05;;;4.90;;
59014;SDS011;44799;53.382;14.666;2023-09-07T23:27:28;6.75;;;5.45;;
59014;SDS011;44799;53.382;14.666;2023-09-07T23:29:54;7.57;;;5.00;;
59014;SDS011;44799;53.382;14.666;2023-09-07T23:32:20;7.00;;;5.50;;
59014;SDS011;44799;53.382;14.666;2023-09-07T23:34:47;7.35;;;4.95;;
59014;SDS011;44799;53.382;14.666;2023-09-07T23:37:12;7.00;;;5.20;;
59014;SDS011;44799;53.382;14.666;2023-09-07T23:39:38;5.85;;;5.07;;
59014;SDS011;44799;53.382;14.666;2023-09-07T23:42:04;6.70;;;4.78;;
59014;SDS011;44799;53.382;14.666;2023-09-07T23:44:30;7.50;;;4.70;;
59014;SDS011;44799;53.382;14.666;2023-09-07T23:46:56;8.35;;;5.50;;
59014;SDS011;44799;53.382;14.666;2023-09-07T23:49:22;8.00;;;5.22;;
59014;SDS011;44799;53.382;14.666;2023-09-07T23:51:48;8.68;;;5.30;;
59014;SDS011;44799;53.382;14.666;2023-09-07T23:54:14;7.53;;;4.90;;
59014;SDS011;44799;53.382;14.666;2023-09-07T23:56:41;7.47;;;4.82;;
59014;SDS011;44799;53.382;14.666;2023-09-07T23:59:07;5.57;;;4.72;;
